Terminal Aerodrome Forecast
Issued by NWS

Home | Current Version | Previous Version | Text Only | Print | Product List | Glossary On
Versions: 1 2 3 4 5 6 7 8 9 10 11 12 13 14 15 16 17 18 19 20 21 22 23 24
060
FTPA31 PHFO 291733
TAFHTO
TAF
PHTO 291733Z 2918/3018 25004KT P6SM VCSH FEW030 BKN050
      TEMPO 2918/2919 6SM -RA BKN030
     FM292000 02010KT P6SM FEW035 BKN050
     FM300600 28004KT P6SM FEW020 SCT035 OVC050=

USA.gov is the U.S. government's official web portal to all federal, state and local government web resources and services.